Time;durP1;ratioP1;P1;durP2;ratioP2;P2;SDS_P1;SDS_P2;PMS_P1;PMS_P2;Temp;Humidity;BMP_temperature;BMP_pressure;BME280_temperature;BME280_humidity;BME280_pressure;Samples;Min_cycle;Max_cycle;Signal;HPM_P1;HPM_P2
2023/03/09 05:18:22;;;;;;;16.23;4.88;;;12.40;55.70;;;;;;5399213;24;20132;-70
2023/03/09 05:20:48;;;;;;;16.90;5.25;;;12.60;55.70;;;;;;4744176;30;20092;-71
2023/03/09 05:23:13;;;;;;;27.15;5.97;;;12.60;55.60;;;;;;4779737;30;20110;-71
2023/03/09 05:25:39;;;;;;;17.88;6.18;;;12.80;55.90;;;;;;4793087;30;20062;-71
2023/03/09 05:28:05;;;;;;;25.55;5.22;;;12.90;56.10;;;;;;4792752;30;20138;-71
2023/03/09 05:30:31;;;;;;;21.20;5.47;;;13.10;56.30;;;;;;4792717;30;20047;-71
2023/03/09 05:32:57;;;;;;;14.63;4.88;;;13.10;55.90;;;;;;4793459;30;20091;-71
2023/03/09 05:35:23;;;;;;;17.23;4.75;;;13.20;56.20;;;;;;4793554;29;20094;-71
2023/03/09 05:37:48;;;;;;;18.17;5.18;;;13.20;56.20;;;;;;4810808;29;20043;-71
2023/03/09 05:40:17;;;;;;;18.75;4.85;;;13.40;56.40;;;;;;4810538;29;20127;-71
2023/03/09 05:42:43;;;;;;;17.30;5.05;;;13.40;56.70;;;;;;4810538;29;20058;-71
2023/03/09 05:45:09;;;;;;;14.25;5.35;;;13.50;56.80;;;;;;4810386;29;20435;-71
2023/03/09 05:47:35;;;;;;;12.20;4.78;;;13.60;57.20;;;;;;4810773;29;20042;-71
2023/03/09 05:50:01;;;;;;;16.08;4.55;;;13.60;57.10;;;;;;4809670;29;20118;-69
2023/03/09 05:52:27;;;;;;;17.35;5.38;;;13.70;57.10;;;;;;4776685;30;20443;-71
2023/03/09 05:54:53;;;;;;;21.13;5.00;;;13.70;57.00;;;;;;4791825;30;20075;-71
2023/03/09 05:57:19;;;;;;;18.92;4.43;;;13.80;56.90;;;;;;4792173;30;20055;-71
2023/03/09 05:59:47;;;;;;;17.45;4.45;;;13.80;56.80;;;;;;4792278;30;20048;-72
2023/03/09 06:02:13;;;;;;;15.70;4.93;;;13.90;56.80;;;;;;4790961;30;20130;-71
2023/03/09 06:04:39;;;;;;;20.20;5.32;;;14.00;56.80;;;;;;4773741;30;20126;-72
2023/03/09 06:07:04;;;;;;;14.63;4.22;;;14.00;56.90;;;;;;4790742;30;20336;-71
2023/03/09 06:09:30;;;;;;;20.02;4.68;;;14.10;57.20;;;;;;4792280;30;20058;-71
2023/03/09 06:11:56;;;;;;;27.30;5.75;;;14.10;57.40;;;;;;4792471;30;20533;-72
2023/03/09 06:14:21;;;;;;;24.58;7.25;;;14.10;57.80;;;;;;4791672;30;20059;-72
2023/03/09 06:16:47;;;;;;;18.73;5.53;;;14.00;53.80;;;;;;4792220;30;20055;-72
2023/03/09 06:19:13;;;;;;;23.25;5.18;;;13.80;56.50;;;;;;4798091;29;20238;-72
2023/03/09 06:21:39;;;;;;;24.98;5.10;;;14.00;57.70;;;;;;4810094;29;20062;-71
2023/03/09 06:24:05;;;;;;;28.40;5.38;;;14.10;58.00;;;;;;4807252;29;20131;-76
2023/03/09 06:26:31;;;;;;;19.58;5.05;;;14.20;58.20;;;;;;4790958;29;20055;-73
2023/03/09 06:28:57;;;;;;;26.38;5.72;;;14.30;58.20;;;;;;4791983;30;20104;-75
2023/03/09 06:31:22;;;;;;;25.20;5.57;;;14.30;58.00;;;;;;4791948;30;20053;-73
2023/03/09 06:33:48;;;;;;;25.05;6.22;;;14.40;58.20;;;;;;4791703;29;20058;-74
2023/03/09 06:36:17;;;;;;;22.05;4.85;;;14.40;58.00;;;;;;4791412;30;20138;-74
2023/03/09 06:38:43;;;;;;;24.52;6.93;;;14.50;58.30;;;;;;4791680;30;20086;-72
2023/03/09 06:41:09;;;;;;;18.45;4.72;;;14.50;58.50;;;;;;4790709;30;20067;-73
2023/03/09 06:43:36;;;;;;;27.85;5.93;;;14.60;58.50;;;;;;4805649;29;20165;-75
2023/03/09 06:46:01;;;;;;;33.65;7.32;;;14.60;58.50;;;;;;4809806;29;20097;-72
2023/03/09 06:48:27;;;;;;;28.92;5.97;;;14.70;58.60;;;;;;4809725;29;20082;-72
2023/03/09 06:50:53;;;;;;;29.25;7.60;;;14.70;58.70;;;;;;4809853;29;20050;-72
2023/03/09 06:53:18;;;;;;;35.97;5.80;;;14.70;58.20;;;;;;4796983;29;20054;-75
2023/03/09 06:55:47;;;;;;;27.45;5.95;;;14.80;58.30;;;;;;4795850;29;20084;-73
2023/03/09 06:58:13;;;;;;;33.20;6.93;;;14.80;58.20;;;;;;4801145;29;20526;-72
2023/03/09 07:00:40;;;;;;;26.63;6.20;;;14.80;58.40;;;;;;4792046;29;20051;-72
2023/03/09 07:03:12;;;;;;;24.90;7.60;;;14.90;58.80;;;;;;4790745;29;20433;-70
2023/03/09 07:05:38;;;;;;;38.22;5.93;;;14.90;58.70;;;;;;4799659;29;20062;-72
2023/03/09 07:08:04;;;;;;;28.70;6.13;;;15.00;58.70;;;;;;4790753;30;20051;-72
2023/03/09 07:10:30;;;;;;;38.70;7.43;;;15.00;58.50;;;;;;4790093;30;20148;-73
2023/03/09 07:12:55;;;;;;;29.40;6.63;;;15.00;58.00;;;;;;4790262;30;20048;-73
2023/03/09 07:15:21;;;;;;;25.15;6.85;;;15.00;57.90;;;;;;4791342;29;20059;-72
2023/03/09 07:17:47;;;;;;;26.75;10.38;;;15.00;57.00;;;;;;4790306;30;20062;-72
2023/03/09 07:20:13;;;;;;;27.95;9.70;;;15.00;54.80;;;;;;4805232;29;20059;-71
2023/03/09 07:22:39;;;;;;;25.55;10.07;;;14.80;53.90;;;;;;4807998;29;20055;-72
2023/03/09 07:25:05;;;;;;;28.52;10.00;;;14.80;52.90;;;;;;4806566;29;20096;-72
2023/03/09 07:27:31;;;;;;;23.77;8.27;;;14.70;53.10;;;;;;4807733;29;20054;-72
2023/03/09 07:29:57;;;;;;;19.80;8.13;;;14.60;53.40;;;;;;4812986;29;20050;-73
2023/03/09 07:32:23;;;;;;;19.20;7.72;;;14.60;55.40;;;;;;4807653;29;20204;-72
2023/03/09 07:34:50;;;;;;;20.05;7.57;;;14.60;55.80;;;;;;4827263;29;20486;-73
2023/03/09 07:37:15;;;;;;;21.23;8.35;;;14.60;56.80;;;;;;4826730;29;20050;-74
2023/03/09 07:39:41;;;;;;;15.20;6.68;;;14.60;57.70;;;;;;4808274;29;20116;-73
2023/03/09 07:42:07;;;;;;;17.77;6.38;;;14.60;55.80;;;;;;4808728;29;20051;-70
2023/03/09 07:44:33;;;;;;;17.17;7.32;;;14.50;54.80;;;;;;4808585;29;20051;-73
2023/03/09 07:46:59;;;;;;;18.63;7.10;;;14.50;55.00;;;;;;4808490;29;20467;-73
2023/03/09 07:49:24;;;;;;;12.02;6.43;;;14.40;55.10;;;;;;4808287;29;20062;-74
2023/03/09 07:51:50;;;;;;;16.73;6.68;;;14.30;55.10;;;;;;4804816;29;20078;-74
2023/03/09 07:54:16;;;;;;;17.08;6.65;;;14.30;56.30;;;;;;4808171;29;20461;-81
2023/03/09 07:56:44;;;;;;;14.93;6.22;;;14.30;56.30;;;;;;4776936;29;20158;-76
2023/03/09 07:59:15;;;;;;;13.23;6.32;;;14.20;56.20;;;;;;4806835;29;20070;-76
2023/03/09 08:01:41;;;;;;;12.00;5.47;;;14.20;56.10;;;;;;4807210;29;20055;-74
2023/03/09 08:04:06;;;;;;;15.38;5.38;;;14.10;56.30;;;;;;4790398;29;20143;-74
2023/03/09 08:06:33;;;;;;;15.75;5.95;;;14.00;56.50;;;;;;4792032;29;20054;-74
2023/03/09 08:08:59;;;;;;;12.52;5.75;;;14.00;56.70;;;;;;4806610;29;20392;-73
2023/03/09 08:11:25;;;;;;;15.20;5.95;;;14.00;56.80;;;;;;4819469;29;20055;-73
2023/03/09 08:13:51;;;;;;;10.98;5.00;;;13.90;57.30;;;;;;4816025;29;20058;-78
2023/03/09 08:16:17;;;;;;;15.63;5.28;;;13.90;57.20;;;;;;4812775;29;20057;-74
2023/03/09 08:18:43;;;;;;;12.20;6.35;;;13.90;57.30;;;;;;4804284;29;20387;-71
2023/03/09 08:21:12;;;;;;;18.80;5.95;;;13.90;57.40;;;;;;4800204;29;20062;-76
2023/03/09 08:23:43;;;;;;;16.20;5.40;;;13.80;57.10;;;;;;4799748;29;20058;-76
2023/03/09 08:26:11;;;;;;;16.23;5.00;;;13.90;57.10;;;;;;4792180;29;20469;-75
2023/03/09 08:28:38;;;;;;;16.83;4.97;;;13.90;56.70;;;;;;4781826;29;20046;-75
2023/03/09 08:31:04;;;;;;;16.20;5.45;;;14.00;57.30;;;;;;4798763;29;20424;-76
2023/03/09 08:33:30;;;;;;;13.63;4.80;;;14.10;57.50;;;;;;4788567;29;20058;-73
2023/03/09 08:35:56;;;;;;;13.80;4.85;;;14.20;57.50;;;;;;4807815;29;20054;-75
2023/03/09 08:38:23;;;;;;;16.23;4.10;;;14.20;57.40;;;;;;4791362;29;20055;-74
2023/03/09 08:40:49;;;;;;;13.90;4.20;;;14.30;57.40;;;;;;4788967;30;20130;-78
2023/03/09 08:43:15;;;;;;;13.80;4.00;;;14.30;57.30;;;;;;4785865;29;20051;-78
2023/03/09 08:45:40;;;;;;;11.38;3.20;;;14.40;57.40;;;;;;4788919;30;20073;-77
2023/03/09 08:48:06;;;;;;;13.70;3.10;;;14.40;57.90;;;;;;4792934;29;20047;-75
2023/03/09 08:50:32;;;;;;;12.20;3.03;;;14.50;57.50;;;;;;4802000;29;20059;-74
2023/03/09 08:52:57;;;;;;;13.45;3.60;;;14.50;57.70;;;;;;4790253;30;20047;-75
2023/03/09 08:55:23;;;;;;;12.77;3.35;;;14.50;57.40;;;;;;4793461;30;20070;-76
2023/03/09 08:57:51;;;;;;;15.45;3.10;;;14.60;57.40;;;;;;4792438;30;20524;-72
2023/03/09 09:00:18;;;;;;;8.82;2.53;;;14.60;58.60;;;;;;4809721;29;20059;-74
2023/03/09 09:02:43;;;;;;;7.97;2.20;;;14.60;57.70;;;;;;4780386;29;20105;-76
2023/03/09 09:05:10;;;;;;;13.18;2.33;;;14.70;57.60;;;;;;4795471;29;20090;-75
2023/03/09 09:07:36;;;;;;;11.80;2.70;;;14.70;57.70;;;;;;4810460;29;20042;-79
2023/03/09 09:10:02;;;;;;;8.07;2.08;;;14.70;57.70;;;;;;4785380;29;20374;-76
2023/03/09 09:12:32;;;;;;;6.80;1.90;;;14.80;57.70;;;;;;4800764;29;20122;-73
2023/03/09 09:14:57;;;;;;;6.68;1.80;;;14.80;57.80;;;;;;4805253;29;20058;-76
2023/03/09 09:17:23;;;;;;;9.05;1.70;;;14.90;57.40;;;;;;4777472;30;20066;-77
2023/03/09 09:19:51;;;;;;;4.43;1.52;;;15.00;57.20;;;;;;4804238;29;20059;-76
2023/03/09 09:22:17;;;;;;;7.97;1.40;;;15.00;57.10;;;;;;4794660;29;20426;-76
2023/03/09 09:24:44;;;;;;;11.55;1.08;;;15.00;57.00;;;;;;4810498;29;20051;-74
2023/03/09 09:27:10;;;;;;;9.23;2.05;;;15.10;56.90;;;;;;4811021;29;20047;-77
2023/03/09 09:29:36;;;;;;;7.97;1.65;;;15.10;56.90;;;;;;4810903;29;20099;-78
2023/03/09 09:32:04;;;;;;;4.85;1.20;;;15.20;56.90;;;;;;4810636;29;20147;-78
2023/03/09 09:34:33;;;;;;;14.20;1.60;;;15.30;56.60;;;;;;4809945;29;20086;-76
2023/03/09 09:37:02;;;;;;;5.05;0.95;;;15.30;56.30;;;;;;4810254;29;21074;-78
2023/03/09 09:39:29;;;;;;;15.65;1.55;;;15.30;56.30;;;;;;4810861;29;20426;-77
2023/03/09 09:41:59;;;;;;;8.00;1.63;;;15.40;56.30;;;;;;4810731;29;20486;-79
2023/03/09 09:44:32;;;;;;;7.47;1.10;;;15.40;56.30;;;;;;4794312;29;20062;-79
2023/03/09 09:47:03;;;;;;;5.68;1.30;;;15.40;56.60;;;;;;4794456;29;20055;-78
2023/03/09 09:49:43;;;;;;;6.68;1.20;;;15.40;55.70;;;;;;4810201;29;20458;-77
2023/03/09 09:52:42;;;;;;;8.93;2.45;;;15.50;55.60;;;;;;4794388;29;20050;-81
2023/03/09 09:55:08;;;;;;;8.45;1.98;;;15.50;55.50;;;;;;4802510;29;20371;-77
2023/03/09 09:57:46;;;;;;;11.13;2.33;;;15.50;55.60;;;;;;4810299;29;20103;-77
2023/03/09 10:00:21;;;;;;;8.57;1.77;;;15.50;55.20;;;;;;4794217;29;20047;-78
2023/03/09 10:03:11;;;;;;;10.15;2.08;;;15.60;55.00;;;;;;4809822;29;20112;-78
2023/03/09 10:05:37;;;;;;;13.82;2.65;;;15.50;54.20;;;;;;4809346;29;20043;-75
2023/03/09 10:08:21;;;;;;;9.07;2.60;;;15.60;54.20;;;;;;4809401;29;20149;-75
2023/03/09 10:10:47;;;;;;;;;;;15.50;54.10;;;;;;4810641;29;20051;-76
2023/03/09 10:13:23;;;;;;;5.90;2.30;;;15.50;53.70;;;;;;4810245;29;20024;-77
2023/03/09 10:15:51;;;;;;;7.63;2.20;;;15.50;53.60;;;;;;4810004;29;20047;-75
2023/03/09 10:18:24;;;;;;;8.73;2.20;;;15.50;53.80;;;;;;4810070;29;20055;-76
2023/03/09 10:20:51;;;;;;;10.13;2.00;;;15.50;53.80;;;;;;4809912;29;20058;-78
2023/03/09 10:23:20;;;;;;;5.20;1.35;;;15.40;53.70;;;;;;4810273;29;20046;-76
2023/03/09 10:25:48;;;;;;;6.28;1.65;;;15.40;53.80;;;;;;4809749;29;20130;-76
2023/03/09 10:28:18;;;;;;;5.13;1.83;;;15.40;53.90;;;;;;4810496;29;20127;-75
2023/03/09 10:30:57;;;;;;;9.35;1.40;;;15.40;54.00;;;;;;4810200;29;20108;-79
2023/03/09 10:33:42;;;;;;;3.13;1.17;;;15.30;54.00;;;;;;4809401;29;20054;-76
2023/03/09 10:36:10;;;;;;;7.70;1.67;;;15.30;54.00;;;;;;4809714;29;20051;-75
2023/03/09 10:38:38;;;;;;;8.57;1.92;;;15.20;54.20;;;;;;4809637;29;20128;-74
2023/03/09 10:41:13;;;;;;;5.40;1.63;;;15.20;54.20;;;;;;4809838;29;20137;-76
2023/03/09 10:43:39;;;;;;;4.00;1.30;;;15.10;54.20;;;;;;4809599;29;20042;-76
2023/03/09 10:46:13;;;;;;;8.20;1.38;;;15.10;54.30;;;;;;4809327;29;20066;-77
2023/03/09 10:48:39;;;;;;;5.97;1.38;;;15.00;54.30;;;;;;4808835;29;20065;-76
2023/03/09 10:51:25;;;;;;;9.05;1.58;;;15.00;54.50;;;;;;4808900;29;20463;-79
2023/03/09 10:53:56;;;;;;;4.05;1.48;;;15.00;54.70;;;;;;4793057;29;20070;-79
2023/03/09 10:56:23;;;;;;;7.47;2.05;;;15.00;54.50;;;;;;4793369;29;20066;-77
2023/03/09 10:59:06;;;;;;;5.57;1.67;;;15.00;54.50;;;;;;4808999;29;20051;-78
2023/03/09 11:01:47;;;;;;;9.68;1.95;;;14.90;54.30;;;;;;4793330;29;20057;-78
2023/03/09 11:04:22;;;;;;;10.65;2.17;;;14.90;54.00;;;;;;4808830;29;20062;-78
2023/03/09 11:06:57;;;;;;;7.60;2.40;;;14.80;54.20;;;;;;4793042;29;20054;-78
2023/03/09 11:09:33;;;;;;;8.38;2.33;;;14.80;54.70;;;;;;4807985;29;20047;-81
2023/03/09 11:12:33;;;;;;;12.65;2.97;;;14.80;55.70;;;;;;4808542;29;20047;-79
2023/03/09 11:15:25;;;;;;;4.82;1.92;;;14.80;54.90;;;;;;4792941;29;20555;-80
2023/03/09 11:17:51;;;;;;;7.38;1.85;;;14.70;55.50;;;;;;4768503;29;20567;-79
2023/03/09 11:20:32;;;;;;;5.60;1.83;;;14.80;55.10;;;;;;4792226;29;20100;-82
2023/03/09 11:22:59;;;;;;;7.18;1.73;;;14.80;55.10;;;;;;4809086;29;20046;-79
2023/03/09 11:25:47;;;;;;;7.32;1.40;;;14.90;55.20;;;;;;4793319;29;20451;-82
2023/03/09 11:28:12;;;;;;;8.57;1.33;;;15.10;55.50;;;;;;4809115;29;20069;-80
2023/03/09 11:30:39;;;;;;;8.48;1.48;;;15.10;55.30;;;;;;4792375;29;20520;-83
2023/03/09 11:33:11;;;;;;;5.43;1.48;;;15.10;55.40;;;;;;4798867;29;20065;-77
2023/03/09 11:35:37;;;;;;;7.78;2.13;;;15.20;55.50;;;;;;4809808;29;20050;-79
2023/03/09 11:38:11;;;;;;;8.20;2.15;;;15.20;55.50;;;;;;4792628;29;20509;-79
2023/03/09 11:40:40;;;;;;;7.38;1.65;;;15.20;55.60;;;;;;4807992;29;20058;-79
2023/03/09 11:43:31;;;;;;;12.77;1.70;;;15.20;55.70;;;;;;4804892;29;20164;-78
2023/03/09 11:46:01;;;;;;;10.00;2.10;;;15.30;56.10;;;;;;4804403;29;20054;-80
2023/03/09 11:48:35;;;;;;;11.05;2.00;;;15.30;56.10;;;;;;4808464;29;20069;-78
2023/03/09 11:51:01;;;;;;;;;;;15.30;56.10;;;;;;4808900;29;20058;-79
2023/03/09 11:53:39;;;;;;;13.02;2.28;;;15.30;56.50;;;;;;4807962;29;19921;-77
2023/03/09 11:56:08;;;;;;;14.02;2.08;;;15.30;56.70;;;;;;4808445;29;20047;-81
2023/03/09 11:58:52;;;;;;;15.90;2.55;;;15.40;56.70;;;;;;4791771;29;20088;-84
2023/03/09 12:01:30;;;;;;;16.88;2.65;;;15.40;56.30;;;;;;4776360;29;20483;-76
2023/03/09 12:04:02;;;;;;;13.82;2.50;;;15.40;56.20;;;;;;4807089;29;20043;-82
2023/03/09 12:06:43;;;;;;;14.35;2.22;;;15.40;56.20;;;;;;4792492;29;20050;-83
2023/03/09 12:09:29;;;;;;;18.48;2.38;;;15.30;56.20;;;;;;4791651;29;20081;-83
2023/03/09 12:12:32;;;;;;;19.45;2.25;;;15.40;56.30;;;;;;4804635;29;20116;-81
2023/03/09 12:15:12;;;;;;;12.13;2.28;;;15.40;56.40;;;;;;4774907;29;20078;-79
2023/03/09 12:17:56;;;;;;;12.40;2.03;;;15.40;58.70;;;;;;4807237;29;20046;-84
2023/03/09 12:20:47;;;;;;;15.82;2.03;;;15.30;57.10;;;;;;4771964;30;20150;-82
2023/03/09 12:23:35;;;;;;;10.23;3.05;;;15.40;56.80;;;;;;4789439;29;20111;-82
2023/03/09 12:26:29;;;;;;;14.73;2.03;;;15.30;56.70;;;;;;4772469;30;20047;-84
2023/03/09 12:29:22;;;;;;;10.50;1.83;;;15.20;57.00;;;;;;4766758;30;20431;-79
2023/03/09 12:32:26;;;;;;;8.73;1.88;;;15.20;57.60;;;;;;4788650;30;20366;-81
2023/03/09 12:34:56;;;;;;;9.35;1.60;;;15.20;57.30;;;;;;4766564;30;20056;-82
2023/03/09 12:37:28;;;;;;;9.20;1.50;;;15.20;57.20;;;;;;4772703;30;20387;-78
2023/03/09 12:40:24;;;;;;;9.55;1.90;;;15.20;57.10;;;;;;4788732;30;20104;-79
2023/03/09 12:42:53;;;;;;;8.95;1.45;;;15.20;56.90;;;;;;4776334;30;20083;-80
2023/03/09 12:45:19;;;;;;;9.95;1.55;;;15.20;57.00;;;;;;4773513;30;20096;-77
2023/03/09 12:48:06;;;;;;;10.45;1.55;;;15.20;57.20;;;;;;4788523;30;20090;-77
2023/03/09 12:50:48;;;;;;;9.63;1.58;;;15.20;56.90;;;;;;4787175;30;20057;-79
2023/03/09 12:53:22;;;;;;;6.90;1.40;;;15.20;57.30;;;;;;4787422;30;20051;-77
2023/03/09 12:55:53;;;;;;;6.93;1.10;;;15.20;57.60;;;;;;4790776;29;20043;-78
2023/03/09 12:58:21;;;;;;;9.40;1.20;;;15.20;57.70;;;;;;4788922;30;20086;-78
2023/03/09 13:01:03;;;;;;;6.68;1.42;;;15.20;57.40;;;;;;4785780;30;20065;-80
2023/03/09 13:04:13;;;;;;;10.05;1.33;;;15.20;57.20;;;;;;4773123;30;20058;-81
2023/03/09 13:06:45;;;;;;;8.05;1.48;;;15.20;57.20;;;;;;4769846;30;20063;-81
2023/03/09 13:09:13;;;;;;;4.65;1.02;;;15.10;57.10;;;;;;4770695;30;20043;-84
2023/03/09 13:11:57;;;;;;;4.65;1.60;;;15.10;57.00;;;;;;4773207;30;20039;-82
2023/03/09 13:14:25;;;;;;;5.93;1.43;;;15.10;56.80;;;;;;4772247;30;20104;-82
2023/03/09 13:17:18;;;;;;;4.03;1.00;;;15.10;56.90;;;;;;4788799;30;20300;-80
2023/03/09 13:19:53;;;;;;;4.53;1.17;;;15.00;56.70;;;;;;4748486;30;20048;-78
2023/03/09 13:22:21;;;;;;;5.93;1.05;;;15.10;56.80;;;;;;4789521;30;20052;-79
2023/03/09 13:24:50;;;;;;;6.60;1.10;;;15.10;56.80;;;;;;4789488;30;20082;-80
2023/03/09 13:27:26;;;;;;;9.55;2.00;;;15.10;56.90;;;;;;4789807;30;20138;-80
2023/03/09 13:30:08;;;;;;;6.88;1.58;;;15.10;57.10;;;;;;4789043;30;20048;-78
2023/03/09 13:32:51;;;;;;;7.95;1.23;;;15.10;58.90;;;;;;4789616;30;20142;-80
2023/03/09 13:35:28;;;;;;;7.93;1.40;;;15.20;59.90;;;;;;4787897;29;20055;-78
2023/03/09 13:37:56;;;;;;;5.70;0.98;;;15.30;60.20;;;;;;4792679;30;20051;-84
2023/03/09 13:40:28;;;;;;;5.03;0.88;;;15.30;59.70;;;;;;4792680;30;20055;-80
2023/03/09 13:42:56;;;;;;;6.38;1.23;;;15.40;59.30;;;;;;4776212;30;20055;-80
2023/03/09 13:45:28;;;;;;;3.20;0.80;;;15.40;58.10;;;;;;4803450;29;20509;-79
2023/03/09 13:47:57;;;;;;;7.05;0.88;;;15.30;57.20;;;;;;4794680;29;20118;-77
2023/03/09 13:50:27;;;;;;;3.60;0.65;;;15.30;59.20;;;;;;4792375;30;20055;-79
2023/03/09 13:53:02;;;;;;;5.60;1.00;;;15.40;59.30;;;;;;4754250;30;20063;-80
2023/03/09 13:55:28;;;;;;;5.15;0.95;;;15.40;58.90;;;;;;4792124;30;20060;-80
2023/03/09 13:58:05;;;;;;;4.65;1.10;;;15.40;59.60;;;;;;4792849;30;20360;-79
2023/03/09 14:00:31;;;;;;;2.35;1.15;;;15.40;59.90;;;;;;4792340;30;20059;-81
2023/03/09 14:02:57;;;;;;;3.67;1.10;;;15.50;59.40;;;;;;4792348;30;20062;-80
2023/03/09 14:05:24;;;;;;;3.50;0.75;;;15.50;59.70;;;;;;4791614;29;20046;-77
2023/03/09 14:07:58;;;;;;;4.60;1.10;;;15.50;59.30;;;;;;4791066;30;20420;-82
2023/03/09 14:10:36;;;;;;;3.55;0.70;;;15.50;59.60;;;;;;4761099;30;20069;-79
2023/03/09 14:13:12;;;;;;;4.03;0.98;;;15.50;58.20;;;;;;4791508;30;20185;-79
2023/03/09 14:15:38;;;;;;;7.22;0.88;;;15.60;58.70;;;;;;4791335;30;20059;-79
2023/03/09 14:18:14;;;;;;;3.13;0.60;;;15.60;57.90;;;;;;4776208;30;20471;-80
2023/03/09 14:20:40;;;;;;;4.05;1.60;;;15.50;57.00;;;;;;4792416;29;20116;-81
2023/03/09 14:23:28;;;;;;;5.70;1.13;;;15.50;56.90;;;;;;4800363;29;20463;-79
2023/03/09 14:25:57;;;;;;;11.80;2.10;;;15.40;56.50;;;;;;4809486;29;20200;-77
2023/03/09 14:28:28;;;;;;;18.50;2.58;;;15.40;56.70;;;;;;4793370;29;20059;-74
2023/03/09 14:30:54;;;;;;;10.40;1.90;;;15.40;57.10;;;;;;4793302;29;20067;-73
2023/03/09 14:33:29;;;;;;;15.48;2.30;;;15.40;57.20;;;;;;4810190;29;20126;-75
2023/03/09 14:36:05;;;;;;;20.60;2.95;;;15.40;57.50;;;;;;4808479;29;20043;-77
2023/03/09 14:38:30;;;;;;;27.25;3.78;;;15.40;57.70;;;;;;4793207;29;20047;-75
2023/03/09 14:41:02;;;;;;;17.92;2.47;;;15.30;57.90;;;;;;4792365;29;20111;-75
2023/03/09 14:43:35;;;;;;;20.30;3.60;;;15.40;58.90;;;;;;4809520;29;20042;-80
2023/03/09 14:46:27;;;;;;;;;;;15.40;58.50;;;;;;4809682;29;20100;-77
2023/03/09 14:48:56;;;;;;;17.08;3.22;;;15.40;58.60;;;;;;4791336;29;20008;-78
2023/03/09 14:51:23;;;;;;;20.05;3.60;;;15.40;58.10;;;;;;4809385;29;20047;-80
2023/03/09 14:53:59;;;;;;;17.00;3.65;;;15.40;57.50;;;;;;4808236;29;20038;-77
2023/03/09 14:56:26;;;;;;;12.70;3.13;;;15.40;55.50;;;;;;4791071;29;20125;-78
2023/03/09 14:58:52;;;;;;;10.70;4.55;;;15.40;54.80;;;;;;4777667;29;20051;-79
2023/03/09 15:01:21;;;;;;;15.27;3.38;;;15.40;53.50;;;;;;4805300;29;20056;-81
2023/03/09 15:03:48;;;;;;;19.48;4.80;;;15.50;52.80;;;;;;4778037;29;20042;-79
2023/03/09 15:06:14;;;;;;;23.58;3.38;;;15.60;53.20;;;;;;4792343;29;20113;-77
2023/03/09 15:08:40;;;;;;;16.52;3.53;;;15.60;53.40;;;;;;4791737;29;20138;-76
2023/03/09 15:11:06;;;;;;;11.40;3.55;;;15.70;52.80;;;;;;4809179;29;20039;-75
2023/03/09 15:13:32;;;;;;;16.58;4.18;;;15.80;52.00;;;;;;4809050;29;20049;-72
2023/03/09 15:15:58;;;;;;;24.75;3.45;;;15.80;52.20;;;;;;4792634;29;20062;-75
2023/03/09 15:18:24;;;;;;;20.63;3.10;;;15.90;52.60;;;;;;4809398;29;20047;-74
2023/03/09 15:20:50;;;;;;;12.40;3.00;;;15.90;53.20;;;;;;4808679;29;20154;-75
2023/03/09 15:23:16;;;;;;;17.40;2.70;;;16.00;53.90;;;;;;4793983;29;20090;-73
2023/03/09 15:25:43;;;;;;;15.93;3.13;;;16.00;54.40;;;;;;4808478;29;20055;-75
2023/03/09 15:28:10;;;;;;;16.10;3.38;;;16.00;54.80;;;;;;4808283;29;20466;-75
2023/03/09 15:30:36;;;;;;;10.85;3.20;;;16.00;54.30;;;;;;4808360;29;20363;-75
2023/03/09 15:33:02;;;;;;;12.98;3.67;;;16.10;53.30;;;;;;4809089;29;20051;-77
2023/03/09 15:35:28;;;;;;;17.65;3.58;;;16.10;52.10;;;;;;4807223;29;20398;-72
2023/03/09 15:37:56;;;;;;;16.08;3.30;;;16.10;51.70;;;;;;4808906;29;20047;-73
2023/03/09 15:40:51;;;;;;;13.68;2.75;;;16.10;52.50;;;;;;4792769;29;20055;-77
2023/03/09 15:43:22;;;;;;;13.15;2.92;;;16.10;52.50;;;;;;4777480;29;20061;-81
2023/03/09 15:45:48;;;;;;;14.95;2.45;;;16.10;52.90;;;;;;4791482;29;20416;-74
2023/03/09 15:48:14;;;;;;;18.33;2.78;;;16.10;53.60;;;;;;4791796;29;20078;-77
2023/03/09 15:50:41;;;;;;;17.00;3.58;;;16.10;53.60;;;;;;4777388;29;20093;-75
2023/03/09 15:53:07;;;;;;;21.52;3.22;;;16.20;53.90;;;;;;4808785;29;20103;-78
2023/03/09 15:56:04;;;;;;;17.60;3.00;;;16.00;54.30;;;;;;4807921;29;20054;-78
2023/03/09 15:58:37;;;;;;;13.35;3.15;;;16.00;54.80;;;;;;4787594;29;20090;-76
2023/03/09 16:01:12;;;;;;;24.63;3.33;;;16.10;55.10;;;;;;4791177;29;20420;-74
2023/03/09 16:03:39;;;;;;;24.58;3.25;;;16.10;55.80;;;;;;4784092;29;20089;-73
2023/03/09 16:06:05;;;;;;;15.75;3.20;;;16.10;55.80;;;;;;4809808;29;20079;-76
2023/03/09 16:08:31;;;;;;;14.95;2.83;;;16.10;56.60;;;;;;4792440;29;20063;-77
2023/03/09 16:10:57;;;;;;;23.23;3.33;;;16.10;56.70;;;;;;4783672;30;20054;-76
2023/03/09 16:13:23;;;;;;;14.43;3.28;;;16.10;57.00;;;;;;4792567;29;20487;-76
2023/03/09 16:15:50;;;;;;;24.02;2.70;;;16.10;57.30;;;;;;4791138;29;20051;-77
2023/03/09 16:18:18;;;;;;;26.17;3.83;;;16.10;57.40;;;;;;4807786;29;20525;-75
2023/03/09 16:20:44;;;;;;;22.60;3.92;;;16.10;57.60;;;;;;4791951;29;20075;-77
2023/03/09 16:23:11;;;;;;;29.35;4.00;;;16.10;58.70;;;;;;4777354;29;20047;-78
2023/03/09 16:25:38;;;;;;;18.40;3.25;;;16.10;58.20;;;;;;4791231;29;20054;-77
2023/03/09 16:28:04;;;;;;;19.85;3.33;;;16.10;58.20;;;;;;4777027;29;20471;-77
2023/03/09 16:30:30;;;;;;;21.10;3.53;;;16.00;58.20;;;;;;4792307;29;20046;-77
2023/03/09 16:32:56;;;;;;;14.20;3.10;;;16.00;58.40;;;;;;4807820;29;20078;-79
2023/03/09 16:35:24;;;;;;;23.20;3.55;;;16.00;58.40;;;;;;4776587;29;20402;-76
2023/03/09 16:37:51;;;;;;;19.48;3.20;;;16.00;58.50;;;;;;4807863;29;20057;-78
2023/03/09 16:40:18;;;;;;;22.90;3.72;;;16.00;58.50;;;;;;4807567;29;20047;-78
2023/03/09 16:42:44;;;;;;;18.58;3.80;;;16.00;58.40;;;;;;4808036;29;20455;-78
2023/03/09 16:45:12;;;;;;;15.27;3.33;;;16.00;58.50;;;;;;4791816;29;20082;-76
2023/03/09 16:47:38;;;;;;;24.92;4.15;;;15.90;58.40;;;;;;4807649;29;20071;-78
2023/03/09 16:50:07;;;;;;;25.90;4.43;;;15.90;58.90;;;;;;4807682;29;20054;-74
2023/03/09 16:52:33;;;;;;;18.60;3.42;;;15.90;59.10;;;;;;4792300;29;20051;-78
2023/03/09 16:55:06;;;;;;;19.73;3.65;;;15.90;59.20;;;;;;4787475;30;20051;-76
2023/03/09 16:57:32;;;;;;;21.58;3.35;;;15.90;59.30;;;;;;4799297;29;20057;-74
2023/03/09 17:00:00;;;;;;;26.95;4.20;;;15.90;59.40;;;;;;4790771;29;20055;-75
2023/03/09 17:02:28;;;;;;;22.13;4.28;;;15.90;59.40;;;;;;4791694;29;20058;-77
2023/03/09 17:04:54;;;;;;;26.92;4.05;;;15.90;59.40;;;;;;4807484;29;20391;-78
2023/03/09 17:07:22;;;;;;;29.25;5.82;;;15.90;59.40;;;;;;4807841;29;20110;-78
2023/03/09 17:09:47;;;;;;;24.63;4.20;;;15.90;59.50;;;;;;4791813;29;20085;-75
2023/03/09 17:12:14;;;;;;;28.55;4.80;;;15.90;59.60;;;;;;4811391;29;20459;-72
2023/03/09 17:14:40;;;;;;;34.83;5.35;;;15.90;59.70;;;;;;4795010;29;20058;-74
2023/03/09 17:17:09;;;;;;;26.58;4.32;;;15.90;59.70;;;;;;4793850;29;20092;-77
2023/03/09 17:19:36;;;;;;;35.20;5.20;;;15.90;59.60;;;;;;4807310;29;20386;-76
2023/03/09 17:22:02;;;;;;;27.58;5.50;;;15.80;59.40;;;;;;4808800;29;20147;-71
2023/03/09 17:24:34;;;;;;;32.95;6.10;;;15.80;59.40;;;;;;4794769;29;20054;-76
2023/03/09 17:27:00;;;;;;;34.63;7.07;;;15.80;58.80;;;;;;4794846;29;20065;-77
2023/03/09 17:29:26;;;;;;;33.90;5.93;;;15.70;58.10;;;;;;4810393;29;20096;-77
2023/03/09 17:31:53;;;;;;;36.58;6.68;;;15.70;58.30;;;;;;4794971;29;20120;-77
2023/03/09 19:02:49;;;;;;;8.73;3.60;;;14.80;58.10;;;;;;4762875;30;20071;-76
2023/03/09 19:05:14;;;;;;;12.52;4.78;;;14.80;58.30;;;;;;4755260;30;20384;-72
2023/03/09 19:07:40;;;;;;;11.82;3.97;;;14.80;58.20;;;;;;4755718;30;20215;-76
2023/03/09 19:10:09;;;;;;;9.93;4.40;;;14.70;58.10;;;;;;4755543;30;20059;-75
2023/03/09 19:12:35;;;;;;;14.20;4.50;;;14.70;58.10;;;;;;4755450;30;20063;-77
2023/03/09 19:15:00;;;;;;;8.93;4.35;;;14.80;58.20;;;;;;4755289;30;20171;-82
2023/03/09 19:17:26;;;;;;;12.23;4.13;;;14.70;58.30;;;;;;4736521;30;20057;-76
2023/03/09 19:19:52;;;;;;;16.70;4.05;;;14.70;58.20;;;;;;4741040;30;20155;-78
2023/03/09 19:22:21;;;;;;;9.50;4.15;;;14.70;58.10;;;;;;4765560;30;20044;-85
2023/03/09 19:24:47;;;;;;;6.82;3.83;;;14.70;58.00;;;;;;4739724;30;20464;-80
2023/03/09 19:27:13;;;;;;;5.38;3.30;;;14.70;57.90;;;;;;4754188;30;20058;-80
2023/03/09 19:29:39;;;;;;;7.80;3.53;;;14.70;58.00;;;;;;4755112;30;20056;-76
2023/03/09 19:32:04;;;;;;;10.82;4.50;;;14.70;58.30;;;;;;4739096;30;20052;-83
2023/03/09 19:34:33;;;;;;;9.35;6.03;;;14.70;58.60;;;;;;4763387;30;20059;-79
2023/03/09 19:36:59;;;;;;;12.05;9.45;;;14.70;57.70;;;;;;4773141;30;20051;-76
2023/03/09 19:39:27;;;;;;;12.13;10.93;;;14.60;55.90;;;;;;4768993;30;20044;-76
2023/03/09 19:41:53;;;;;;;13.82;11.40;;;14.60;54.20;;;;;;4754692;30;20470;-76